sensor_id;sensor_type;location;lat;lon;timestamp;pressure;altitude;pressure_sealevel;temperature;humidity
13314;BME280;6725;48.112;11.604;2023-07-02T00:01:35;94069.94;;;17.95;100.00
13314;BME280;6725;48.112;11.604;2023-07-02T00:04:01;94074.47;;;17.98;100.00
13314;BME280;6725;48.112;11.604;2023-07-02T00:06:26;94072.00;;;18.00;100.00
13314;BME280;6725;48.112;11.604;2023-07-02T00:08:51;94082.50;;;17.96;100.00
13314;BME280;6725;48.112;11.604;2023-07-02T00:11:17;94070.47;;;17.99;100.00
13314;BME280;6725;48.112;11.604;2023-07-02T00:13:42;94083.53;;;17.98;100.00
13314;BME280;6725;48.112;11.604;2023-07-02T00:16:07;94091.03;;;17.98;100.00
13314;BME280;6725;48.112;11.604;2023-07-02T00:18:33;94088.56;;;18.00;100.00
13314;BME280;6725;48.112;11.604;2023-07-02T00:21:02;94099.63;;;18.00;100.00
13314;BME280;6725;48.112;11.604;2023-07-02T00:23:28;94101.91;;;18.01;100.00
13314;BME280;6725;48.112;11.604;2023-07-02T00:25:54;94114.69;;;17.99;100.00
13314;BME280;6725;48.112;11.604;2023-07-02T00:28:19;94115.25;;;18.03;100.00
13314;BME280;6725;48.112;11.604;2023-07-02T00:30:45;94116.75;;;18.04;100.00
13314;BME280;6725;48.112;11.604;2023-07-02T00:33:10;94116.53;;;18.07;100.00
13314;BME280;6725;48.112;11.604;2023-07-02T00:35:35;94125.59;;;18.08;100.00
13314;BME280;6725;48.112;11.604;2023-07-02T00:38:01;94132.44;;;18.12;100.00
13314;BME280;6725;48.112;11.604;2023-07-02T00:40:27;94135.97;;;18.13;100.00
13314;BME280;6725;48.112;11.604;2023-07-02T00:42:52;94132.94;;;18.11;100.00
13314;BME280;6725;48.112;11.604;2023-07-02T00:45:18;94132.66;;;18.09;100.00
13314;BME280;6725;48.112;11.604;2023-07-02T00:47:43;94137.91;;;18.07;100.00
13314;BME280;6725;48.112;11.604;2023-07-02T00:50:10;94136.41;;;18.06;100.00
13314;BME280;6725;48.112;11.604;2023-07-02T00:52:35;94119.75;;;18.00;100.00
13314;BME280;6725;48.112;11.604;2023-07-02T00:55:02;94125.19;;;17.95;100.00
13314;BME280;6725;48.112;11.604;2023-07-02T00:57:27;94119.66;;;17.95;100.00
13314;BME280;6725;48.112;11.604;2023-07-02T00:59:56;94109.56;;;17.92;100.00
13314;BME280;6725;48.112;11.604;2023-07-02T01:02:22;94103.50;;;17.88;100.00
13314;BME280;6725;48.112;11.604;2023-07-02T01:04:50;94105.00;;;17.89;100.00
13314;BME280;6725;48.112;11.604;2023-07-02T01:07:17;94097.38;;;17.84;100.00
13314;BME280;6725;48.112;11.604;2023-07-02T01:09:43;94089.16;;;17.89;100.00
13314;BME280;6725;48.112;11.604;2023-07-02T01:12:08;94093.41;;;17.85;100.00
13314;BME280;6725;48.112;11.604;2023-07-02T01:14:38;94087.88;;;17.85;100.00
13314;BME280;6725;48.112;11.604;2023-07-02T01:17:05;94084.41;;;17.90;100.00
13314;BME280;6725;48.112;11.604;2023-07-02T01:19:47;94068.81;;;17.87;100.00
13314;BME280;6725;48.112;11.604;2023-07-02T01:22:18;94081.31;;;17.82;100.00
13314;BME280;6725;48.112;11.604;2023-07-02T01:24:43;94071.69;;;17.78;100.00
13314;BME280;6725;48.112;11.604;2023-07-02T01:27:09;94062.47;;;17.81;100.00
13314;BME280;6725;48.112;11.604;2023-07-02T01:29:35;94067.69;;;17.79;100.00
13314;BME280;6725;48.112;11.604;2023-07-02T01:32:02;94066.38;;;17.74;100.00
13314;BME280;6725;48.112;11.604;2023-07-02T01:34:27;94063.69;;;17.80;100.00
13314;BME280;6725;48.112;11.604;2023-07-02T01:36:52;94056.09;;;17.75;100.00
13314;BME280;6725;48.112;11.604;2023-07-02T01:39:18;94064.09;;;17.73;100.00
13314;BME280;6725;48.112;11.604;2023-07-02T01:41:51;94060.50;;;17.67;100.00
13314;BME280;6725;48.112;11.604;2023-07-02T01:44:17;94053.03;;;17.73;100.00
13314;BME280;6725;48.112;11.604;2023-07-02T01:46:43;94056.50;;;17.68;100.00
13314;BME280;6725;48.112;11.604;2023-07-02T01:49:09;94048.91;;;17.63;100.00
13314;BME280;6725;48.112;11.604;2023-07-02T01:51:34;94045.66;;;17.64;100.00
13314;BME280;6725;48.112;11.604;2023-07-02T01:54:00;94044.13;;;17.63;100.00
13314;BME280;6725;48.112;11.604;2023-07-02T01:56:26;94043.16;;;17.66;100.00
13314;BME280;6725;48.112;11.604;2023-07-02T01:58:51;94043.94;;;17.67;100.00
13314;BME280;6725;48.112;11.604;2023-07-02T02:01:17;94056.22;;;17.66;100.00
13314;BME280;6725;48.112;11.604;2023-07-02T02:03:42;94052.00;;;17.70;100.00
13314;BME280;6725;48.112;11.604;2023-07-02T02:06:07;94056.50;;;17.68;100.00
13314;BME280;6725;48.112;11.604;2023-07-02T02:08:33;94059.41;;;17.59;100.00
13314;BME280;6725;48.112;11.604;2023-07-02T02:10:58;94058.06;;;17.54;100.00
13314;BME280;6725;48.112;11.604;2023-07-02T02:13:25;94059.97;;;17.48;100.00
13314;BME280;6725;48.112;11.604;2023-07-02T02:15:51;94055.03;;;17.38;100.00
13314;BME280;6725;48.112;11.604;2023-07-02T02:18:16;94061.50;;;17.35;100.00
13314;BME280;6725;48.112;11.604;2023-07-02T02:20:41;94049.13;;;17.30;100.00
13314;BME280;6725;48.112;11.604;2023-07-02T02:23:07;94050.84;;;17.28;100.00
13314;BME280;6725;48.112;11.604;2023-07-02T02:25:32;94048.78;;;17.23;100.00
13314;BME280;6725;48.112;11.604;2023-07-02T02:27:57;94048.97;;;17.19;100.00
13314;BME280;6725;48.112;11.604;2023-07-02T02:30:23;94056.28;;;17.22;100.00
13314;BME280;6725;48.112;11.604;2023-07-02T02:32:48;94036.03;;;17.25;100.00
13314;BME280;6725;48.112;11.604;2023-07-02T02:35:14;94032.56;;;17.30;100.00
13314;BME280;6725;48.112;11.604;2023-07-02T02:37:40;94039.06;;;17.27;100.00
13314;BME280;6725;48.112;11.604;2023-07-02T02:40:07;94030.28;;;17.29;100.00
13314;BME280;6725;48.112;11.604;2023-07-02T02:42:34;94032.41;;;17.34;100.00
13314;BME280;6725;48.112;11.604;2023-07-02T02:44:59;94032.19;;;17.37;100.00
13314;BME280;6725;48.112;11.604;2023-07-02T02:47:24;94042.47;;;17.37;100.00
13314;BME280;6725;48.112;11.604;2023-07-02T02:49:50;94043.03;;;17.41;100.00
13314;BME280;6725;48.112;11.604;2023-07-02T02:52:15;94041.34;;;17.43;100.00
13314;BME280;6725;48.112;11.604;2023-07-02T02:54:40;94045.13;;;17.46;100.00
13314;BME280;6725;48.112;11.604;2023-07-02T02:57:06;94052.94;;;17.47;100.00
13314;BME280;6725;48.112;11.604;2023-07-02T02:59:31;94054.53;;;17.54;100.00
13314;BME280;6725;48.112;11.604;2023-07-02T03:01:57;94063.38;;;17.58;100.00
13314;BME280;6725;48.112;11.604;2023-07-02T03:04:22;94073.47;;;17.61;100.00
13314;BME280;6725;48.112;11.604;2023-07-02T03:06:49;94084.81;;;17.63;100.00
13314;BME280;6725;48.112;11.604;2023-07-02T03:09:14;94086.78;;;17.62;100.00
13314;BME280;6725;48.112;11.604;2023-07-02T03:11:40;94091.53;;;17.62;100.00
13314;BME280;6725;48.112;11.604;2023-07-02T03:14:05;94086.03;;;17.62;100.00
13314;BME280;6725;48.112;11.604;2023-07-02T03:16:30;94097.06;;;17.62;100.00
13314;BME280;6725;48.112;11.604;2023-07-02T03:18:55;94101.28;;;17.57;100.00
13314;BME280;6725;48.112;11.604;2023-07-02T03:21:21;94098.03;;;17.59;100.00
13314;BME280;6725;48.112;11.604;2023-07-02T03:23:46;94092.53;;;17.59;100.00
13314;BME280;6725;48.112;11.604;2023-07-02T03:26:12;94084.91;;;17.54;100.00
13314;BME280;6725;48.112;11.604;2023-07-02T03:28:37;94084.16;;;17.53;100.00
13314;BME280;6725;48.112;11.604;2023-07-02T03:31:03;94119.19;;;17.47;100.00
13314;BME280;6725;48.112;11.604;2023-07-02T03:33:28;94141.06;;;17.07;100.00
13314;BME280;6725;48.112;11.604;2023-07-02T03:35:53;94156.03;;;16.63;100.00
13314;BME280;6725;48.112;11.604;2023-07-02T03:38:19;94183.00;;;16.11;100.00
13314;BME280;6725;48.112;11.604;2023-07-02T03:40:44;94189.00;;;15.77;100.00
13314;BME280;6725;48.112;11.604;2023-07-02T03:43:10;94212.31;;;15.58;100.00
13314;BME280;6725;48.112;11.604;2023-07-02T03:45:35;94207.34;;;15.39;100.00
13314;BME280;6725;48.112;11.604;2023-07-02T03:48:00;94196.94;;;15.34;100.00
13314;BME280;6725;48.112;11.604;2023-07-02T03:50:26;94185.94;;;15.34;100.00
13314;BME280;6725;48.112;11.604;2023-07-02T03:52:51;94175.41;;;15.23;100.00
13314;BME280;6725;48.112;11.604;2023-07-02T03:55:16;94156.78;;;15.18;100.00
13314;BME280;6725;48.112;11.604;2023-07-02T03:57:42;94134.13;;;15.23;100.00
13314;BME280;6725;48.112;11.604;2023-07-02T04:00:08;94109.72;;;15.16;100.00
13314;BME280;6725;48.112;11.604;2023-07-02T04:02:35;94088.78;;;15.19;100.00
13314;BME280;6725;48.112;11.604;2023-07-02T04:05:01;94091.38;;;15.22;100.00
13314;BME280;6725;48.112;11.604;2023-07-02T04:07:27;94079.59;;;15.22;100.00
13314;BME280;6725;48.112;11.604;2023-07-02T04:09:53;94071.06;;;15.20;100.00
13314;BME280;6725;48.112;11.604;2023-07-02T04:12:19;94049.06;;;15.20;100.00
13314;BME280;6725;48.112;11.604;2023-07-02T04:14:44;94033.06;;;15.09;100.00
13314;BME280;6725;48.112;11.604;2023-07-02T04:17:09;94023.59;;;15.10;100.00
13314;BME280;6725;48.112;11.604;2023-07-02T04:19:35;93984.50;;;15.06;100.00
13314;BME280;6725;48.112;11.604;2023-07-02T04:22:00;93964.00;;;15.07;100.00
13314;BME280;6725;48.112;11.604;2023-07-02T04:24:25;93932.53;;;15.08;100.00
13314;BME280;6725;48.112;11.604;2023-07-02T04:26:51;93909.03;;;15.07;100.00
13314;BME280;6725;48.112;11.604;2023-07-02T04:29:18;93883.03;;;15.08;100.00
13314;BME280;6725;48.112;11.604;2023-07-02T04:31:43;93870.22;;;15.05;100.00
13314;BME280;6725;48.112;11.604;2023-07-02T04:34:08;93848.84;;;15.09;100.00
13314;BME280;6725;48.112;11.604;2023-07-02T04:36:34;93826.53;;;15.07;100.00
13314;BME280;6725;48.112;11.604;2023-07-02T04:38:59;93814.03;;;15.06;100.00
13314;BME280;6725;48.112;11.604;2023-07-02T04:41:26;93797.22;;;15.04;100.00
13314;BME280;6725;48.112;11.604;2023-07-02T04:43:52;93803.59;;;15.10;100.00
13314;BME280;6725;48.112;11.604;2023-07-02T04:46:17;93757.13;;;15.12;100.00
13314;BME280;6725;48.112;11.604;2023-07-02T04:48:43;93731.34;;;15.10;100.00
13314;BME280;6725;48.112;11.604;2023-07-02T04:51:08;93725.38;;;15.11;100.00
13314;BME280;6725;48.112;11.604;2023-07-02T04:53:34;93714.66;;;15.13;100.00
13314;BME280;6725;48.112;11.604;2023-07-02T04:55:59;93704.88;;;15.12;100.00
13314;BME280;6725;48.112;11.604;2023-07-02T04:58:24;93695.69;;;15.15;100.00
13314;BME280;6725;48.112;11.604;2023-07-02T05:00:50;93688.13;;;15.10;100.00
13314;BME280;6725;48.112;11.604;2023-07-02T05:03:15;93690.88;;;15.10;100.00
13314;BME280;6725;48.112;11.604;2023-07-02T05:05:41;93694.84;;;15.09;100.00
13314;BME280;6725;48.112;11.604;2023-07-02T05:08:06;93685.63;;;15.12;100.00
13314;BME280;6725;48.112;11.604;2023-07-02T05:10:32;93691.22;;;15.18;100.00
13314;BME280;6725;48.112;11.604;2023-07-02T05:12:57;93676.75;;;15.17;100.00
13314;BME280;6725;48.112;11.604;2023-07-02T05:15:23;93684.88;;;15.26;100.00
13314;BME280;6725;48.112;11.604;2023-07-02T05:17:49;93678.44;;;15.29;100.00
13314;BME280;6725;48.112;11.604;2023-07-02T05:20:14;93675.47;;;15.33;100.00
13314;BME280;6725;48.112;11.604;2023-07-02T05:22:40;93685.44;;;15.30;100.00
13314;BME280;6725;48.112;11.604;2023-07-02T05:25:05;93685.28;;;15.34;100.00
13314;BME280;6725;48.112;11.604;2023-07-02T05:27:31;93680.50;;;15.34;100.00
13314;BME280;6725;48.112;11.604;2023-07-02T05:29:56;93685.66;;;15.41;100.00
13314;BME280;6725;48.112;11.604;2023-07-02T05:32:22;93691.53;;;15.49;100.00
13314;BME280;6725;48.112;11.604;2023-07-02T05:34:47;93684.88;;;15.55;100.00
13314;BME280;6725;48.112;11.604;2023-07-02T05:37:13;93679.94;;;15.59;100.00
13314;BME280;6725;48.112;11.604;2023-07-02T05:39:38;93674.25;;;15.63;100.00
13314;BME280;6725;48.112;11.604;2023-07-02T05:42:04;93688.03;;;15.63;100.00
13314;BME280;6725;48.112;11.604;2023-07-02T05:44:29;93684.09;;;15.69;100.00
13314;BME280;6725;48.112;11.604;2023-07-02T05:46:54;93684.09;;;15.69;100.00
13314;BME280;6725;48.112;11.604;2023-07-02T05:49:20;93700.25;;;15.76;100.00
13314;BME280;6725;48.112;11.604;2023-07-02T05:51:45;93707.06;;;15.81;100.00
13314;BME280;6725;48.112;11.604;2023-07-02T05:54:10;93719.00;;;15.92;100.00
13314;BME280;6725;48.112;11.604;2023-07-02T05:56:36;93725.34;;;15.98;100.00
13314;BME280;6725;48.112;11.604;2023-07-02T05:59:01;93729.69;;;16.05;100.00
13314;BME280;6725;48.112;11.604;2023-07-02T06:01:26;93742.28;;;16.11;100.00
13314;BME280;6725;48.112;11.604;2023-07-02T06:03:52;93750.28;;;16.09;100.00
13314;BME280;6725;48.112;11.604;2023-07-02T06:06:17;93774.59;;;16.11;100.00
13314;BME280;6725;48.112;11.604;2023-07-02T06:08:43;93784.28;;;16.06;100.00
13314;BME280;6725;48.112;11.604;2023-07-02T06:11:10;93796.81;;;16.07;100.00
13314;BME280;6725;48.112;11.604;2023-07-02T06:13:35;93816.78;;;16.02;100.00
13314;BME280;6725;48.112;11.604;2023-07-02T06:16:00;93821.59;;;16.07;100.00
13314;BME280;6725;48.112;11.604;2023-07-02T06:18:26;93833.00;;;16.00;100.00
13314;BME280;6725;48.112;11.604;2023-07-02T06:20:51;93841.69;;;15.93;100.00
13314;BME280;6725;48.112;11.604;2023-07-02T06:23:17;93846.78;;;16.00;100.00
13314;BME280;6725;48.112;11.604;2023-07-02T06:25:42;93846.31;;;16.02;100.00
13314;BME280;6725;48.112;11.604;2023-07-02T06:28:09;93853.53;;;15.99;100.00
13314;BME280;6725;48.112;11.604;2023-07-02T06:30:34;93850.22;;;15.95;100.00
13314;BME280;6725;48.112;11.604;2023-07-02T06:33:00;93850.78;;;15.99;100.00
13314;BME280;6725;48.112;11.604;2023-07-02T06:35:25;93866.72;;;15.95;100.00
13314;BME280;6725;48.112;11.604;2023-07-02T06:37:51;93863.03;;;15.98;100.00
13314;BME280;6725;48.112;11.604;2023-07-02T06:40:16;93860.84;;;16.02;100.00
13314;BME280;6725;48.112;11.604;2023-07-02T06:42:42;93859.91;;;16.05;100.00
13314;BME280;6725;48.112;11.604;2023-07-02T06:45:07;93851.34;;;16.03;100.00
13314;BME280;6725;48.112;11.604;2023-07-02T06:47:33;93852.88;;;16.04;100.00
13314;BME280;6725;48.112;11.604;2023-07-02T06:49:58;93853.44;;;16.08;100.00
13314;BME280;6725;48.112;11.604;2023-07-02T06:52:24;93851.25;;;16.12;100.00
13314;BME280;6725;48.112;11.604;2023-07-02T06:54:50;93846.00;;;16.14;100.00
13314;BME280;6725;48.112;11.604;2023-07-02T06:57:15;93854.84;;;16.18;100.00
13314;BME280;6725;48.112;11.604;2023-07-02T06:59:40;93852.09;;;16.18;100.00
13314;BME280;6725;48.112;11.604;2023-07-02T07:02:06;93850.19;;;16.24;100.00
13314;BME280;6725;48.112;11.604;2023-07-02T07:04:31;93857.31;;;16.16;100.00
13314;BME280;6725;48.112;11.604;2023-07-02T07:06:57;93851.13;;;16.21;100.00
13314;BME280;6725;48.112;11.604;2023-07-02T07:09:22;93837.44;;;16.27;100.00
13314;BME280;6725;48.112;11.604;2023-07-02T07:11:48;93844.69;;;16.24;100.00
13314;BME280;6725;48.112;11.604;2023-07-02T07:14:13;93842.59;;;16.19;100.00
13314;BME280;6725;48.112;11.604;2023-07-02T07:16:39;93836.53;;;16.15;100.00
13314;BME280;6725;48.112;11.604;2023-07-02T07:19:04;93830.44;;;16.11;100.00
13314;BME280;6725;48.112;11.604;2023-07-02T07:21:30;93832.53;;;16.02;100.00
13314;BME280;6725;48.112;11.604;2023-07-02T07:23:55;93814.22;;;15.99;100.00
13314;BME280;6725;48.112;11.604;2023-07-02T07:26:20;93810.97;;;16.00;100.00
13314;BME280;6725;48.112;11.604;2023-07-02T07:28:46;93802.38;;;15.93;100.00
13314;BME280;6725;48.112;11.604;2023-07-02T07:31:11;93787.34;;;15.94;100.00
13314;BME280;6725;48.112;11.604;2023-07-02T07:33:36;93783.00;;;15.87;100.00
13314;BME280;6725;48.112;11.604;2023-07-02T07:36:02;93772.53;;;15.91;100.00
13314;BME280;6725;48.112;11.604;2023-07-02T07:38:27;93757.38;;;15.81;100.00
13314;BME280;6725;48.112;11.604;2023-07-02T07:40:53;93762.13;;;15.81;100.00
13314;BME280;6725;48.112;11.604;2023-07-02T07:43:18;93748.44;;;15.86;100.00
13314;BME280;6725;48.112;11.604;2023-07-02T07:45:43;93758.59;;;15.80;100.00
13314;BME280;6725;48.112;11.604;2023-07-02T07:48:09;93747.47;;;15.89;100.00
13314;BME280;6725;48.112;11.604;2023-07-02T07:50:34;93740.06;;;15.95;100.00
13314;BME280;6725;48.112;11.604;2023-07-02T07:52:59;93730.16;;;16.03;100.00
13314;BME280;6725;48.112;11.604;2023-07-02T07:55:25;93722.19;;;16.05;100.00
13314;BME280;6725;48.112;11.604;2023-07-02T07:57:50;93721.50;;;16.10;100.00
13314;BME280;6725;48.112;11.604;2023-07-02T08:00:16;93700.72;;;16.09;100.00
13314;BME280;6725;48.112;11.604;2023-07-02T08:02:43;93686.81;;;16.18;100.00
13314;BME280;6725;48.112;11.604;2023-07-02T08:05:08;93662.63;;;16.28;100.00
13314;BME280;6725;48.112;11.604;2023-07-02T08:07:35;93656.94;;;16.31;100.00
13314;BME280;6725;48.112;11.604;2023-07-02T08:10:00;93652.75;;;16.36;100.00
13314;BME280;6725;48.112;11.604;2023-07-02T08:12:27;93654.59;;;16.44;100.00
13314;BME280;6725;48.112;11.604;2023-07-02T08:14:55;93630.47;;;16.80;100.00
13314;BME280;6725;48.112;11.604;2023-07-02T08:17:20;93618.41;;;17.03;100.00
13314;BME280;6725;48.112;11.604;2023-07-02T08:19:45;93611.31;;;17.22;100.00
13314;BME280;6725;48.112;11.604;2023-07-02T08:22:11;93621.44;;;17.36;100.00
13314;BME280;6725;48.112;11.604;2023-07-02T08:24:36;93616.41;;;17.60;100.00
13314;BME280;6725;48.112;11.604;2023-07-02T08:27:02;93653.03;;;17.35;100.00
13314;BME280;6725;48.112;11.604;2023-07-02T08:29:30;93685.19;;;17.38;100.00
13314;BME280;6725;48.112;11.604;2023-07-02T08:31:56;93712.78;;;17.38;100.00
13314;BME280;6725;48.112;11.604;2023-07-02T08:34:21;93737.34;;;17.36;100.00
13314;BME280;6725;48.112;11.604;2023-07-02T08:36:47;93752.81;;;17.28;100.00
13314;BME280;6725;48.112;11.604;2023-07-02T08:39:12;93798.22;;;17.07;100.00
13314;BME280;6725;48.112;11.604;2023-07-02T08:41:48;93797.56;;;17.12;100.00
13314;BME280;6725;48.112;11.604;2023-07-02T08:44:16;93816.94;;;17.17;100.00
13314;BME280;6725;48.112;11.604;2023-07-02T08:46:44;93820.00;;;17.25;100.00
13314;BME280;6725;48.112;11.604;2023-07-02T08:49:10;93845.00;;;17.16;100.00
13314;BME280;6725;48.112;11.604;2023-07-02T08:51:36;93845.25;;;17.18;100.00
13314;BME280;6725;48.112;11.604;2023-07-02T08:54:02;93856.44;;;17.09;100.00
13314;BME280;6725;48.112;11.604;2023-07-02T08:56:28;93853.63;;;17.03;100.00
13314;BME280;6725;48.112;11.604;2023-07-02T08:58:53;93863.72;;;16.92;100.00
13314;BME280;6725;48.112;11.604;2023-07-02T09:01:19;93863.19;;;16.88;100.00
13314;BME280;6725;48.112;11.604;2023-07-02T09:03:44;93850.63;;;16.87;100.00
13314;BME280;6725;48.112;11.604;2023-07-02T09:06:11;93849.13;;;16.86;100.00
13314;BME280;6725;48.112;11.604;2023-07-02T09:08:37;93829.53;;;16.84;100.00
13314;BME280;6725;48.112;11.604;2023-07-02T09:13:31;93819.59;;;16.92;100.00
13314;BME280;6725;48.112;11.604;2023-07-02T09:15:56;93811.63;;;16.94;100.00
13314;BME280;6725;48.112;11.604;2023-07-02T09:18:23;93805.56;;;16.90;100.00
13314;BME280;6725;48.112;11.604;2023-07-02T09:20:53;93784.81;;;16.94;100.00
13314;BME280;6725;48.112;11.604;2023-07-02T09:23:19;93767.28;;;16.97;100.00
13314;BME280;6725;48.112;11.604;2023-07-02T09:25:45;93759.47;;;16.96;100.00
13314;BME280;6725;48.112;11.604;2023-07-02T09:28:19;93746.63;;;16.87;100.00
13314;BME280;6725;48.112;11.604;2023-07-02T09:30:56;93737.72;;;16.98;100.00
13314;BME280;6725;48.112;11.604;2023-07-02T09:33:27;93738.38;;;17.13;100.00
13314;BME280;6725;48.112;11.604;2023-07-02T09:35:52;93718.56;;;17.40;100.00
13314;BME280;6725;48.112;11.604;2023-07-02T09:38:21;93715.81;;;17.65;100.00
13314;BME280;6725;48.112;11.604;2023-07-02T09:40:50;93720.34;;;17.63;100.00
13314;BME280;6725;48.112;11.604;2023-07-02T09:43:16;93734.56;;;17.56;100.00
13314;BME280;6725;48.112;11.604;2023-07-02T09:45:44;93750.97;;;17.65;100.00
13314;BME280;6725;48.112;11.604;2023-07-02T09:48:13;93755.44;;;17.88;100.00
13314;BME280;6725;48.112;11.604;2023-07-02T09:50:40;93780.72;;;18.12;100.00
13314;BME280;6725;48.112;11.604;2023-07-02T09:53:06;93818.97;;;18.19;100.00
13314;BME280;6725;48.112;11.604;2023-07-02T09:55:32;93871.66;;;18.10;100.00
13314;BME280;6725;48.112;11.604;2023-07-02T09:57:58;93914.13;;;17.87;100.00
13314;BME280;6725;48.112;11.604;2023-07-02T10:00:23;93951.97;;;17.81;100.00
13314;BME280;6725;48.112;11.604;2023-07-02T10:02:49;93953.84;;;17.69;100.00
13314;BME280;6725;48.112;11.604;2023-07-02T10:05:31;93954.00;;;17.60;100.00
13314;BME280;6725;48.112;11.604;2023-07-02T10:07:58;93943.69;;;17.81;100.00
13314;BME280;6725;48.112;11.604;2023-07-02T10:10:31;93950.97;;;18.04;100.00
13314;BME280;6725;48.112;11.604;2023-07-02T10:12:57;93943.44;;;18.30;100.00
13314;BME280;6725;48.112;11.604;2023-07-02T10:15:27;93956.53;;;18.55;100.00
13314;BME280;6725;48.112;11.604;2023-07-02T10:18:03;93958.28;;;19.14;100.00
13314;BME280;6725;48.112;11.604;2023-07-02T10:20:46;93949.84;;;21.01;100.00
13314;BME280;6725;48.112;11.604;2023-07-02T10:23:12;94037.94;;;21.61;100.00
13314;BME280;6725;48.112;11.604;2023-07-02T10:25:38;94182.94;;;21.32;100.00
13314;BME280;6725;48.112;11.604;2023-07-02T10:28:17;94307.13;;;21.26;100.00
13314;BME280;6725;48.112;11.604;2023-07-02T10:30:43;94354.63;;;21.28;100.00
13314;BME280;6725;48.112;11.604;2023-07-02T10:35:37;94395.63;;;22.03;100.00
13314;BME280;6725;48.112;11.604;2023-07-02T10:38:04;94412.44;;;22.64;100.00
13314;BME280;6725;48.112;11.604;2023-07-02T10:40:32;94429.41;;;22.55;100.00
13314;BME280;6725;48.112;11.604;2023-07-02T10:42:58;94444.53;;;22.42;100.00
13314;BME280;6725;48.112;11.604;2023-07-02T10:45:34;94408.41;;;22.59;100.00
13314;BME280;6725;48.112;11.604;2023-07-02T10:48:12;94346.09;;;23.12;100.00
13314;BME280;6725;48.112;11.604;2023-07-02T10:50:38;94256.41;;;23.30;100.00
13314;BME280;6725;48.112;11.604;2023-07-02T10:53:03;94254.16;;;23.23;100.00
13314;BME280;6725;48.112;11.604;2023-07-02T10:55:28;94268.59;;;23.21;100.00
13314;BME280;6725;48.112;11.604;2023-07-02T10:58:05;94262.19;;;23.32;100.00
13314;BME280;6725;48.112;11.604;2023-07-02T11:00:31;94275.53;;;23.55;100.00
13314;BME280;6725;48.112;11.604;2023-07-02T11:02:57;94311.34;;;23.35;100.00
13314;BME280;6725;48.112;11.604;2023-07-02T11:05:22;94319.25;;;23.77;100.00
13314;BME280;6725;48.112;11.604;2023-07-02T11:07:48;94288.66;;;24.12;100.00
13314;BME280;6725;48.112;11.604;2023-07-02T11:10:19;94365.63;;;24.37;100.00
13314;BME280;6725;48.112;11.604;2023-07-02T11:12:45;94396.19;;;24.59;100.00
13314;BME280;6725;48.112;11.604;2023-07-02T11:15:12;94400.00;;;24.96;100.00
13314;BME280;6725;48.112;11.604;2023-07-02T11:17:38;94495.69;;;25.43;100.00
13314;BME280;6725;48.112;11.604;2023-07-02T11:20:07;94594.19;;;25.95;100.00
13314;BME280;6725;48.112;11.604;2023-07-02T11:22:34;94741.63;;;26.46;100.00
13314;BME280;6725;48.112;11.604;2023-07-02T11:25:16;94867.66;;;26.87;100.00
13314;BME280;6725;48.112;11.604;2023-07-02T11:27:42;94962.84;;;26.68;100.00
13314;BME280;6725;48.112;11.604;2023-07-02T11:30:08;94997.03;;;27.02;100.00
13314;BME280;6725;48.112;11.604;2023-07-02T11:32:47;94996.66;;;26.81;100.00
13314;BME280;6725;48.112;11.604;2023-07-02T11:35:14;94995.38;;;26.82;100.00
13314;BME280;6725;48.112;11.604;2023-07-02T11:37:40;95008.13;;;27.24;100.00
13314;BME280;6725;48.112;11.604;2023-07-02T11:40:06;95000.34;;;27.70;100.00
13314;BME280;6725;48.112;11.604;2023-07-02T11:42:31;95014.88;;;27.39;100.00
13314;BME280;6725;48.112;11.604;2023-07-02T11:44:57;95003.34;;;27.72;100.00
13314;BME280;6725;48.112;11.604;2023-07-02T11:47:22;95007.94;;;27.75;100.00
13314;BME280;6725;48.112;11.604;2023-07-02T11:49:47;95007.16;;;28.04;100.00
13314;BME280;6725;48.112;11.604;2023-07-02T11:52:13;94994.44;;;27.44;100.00
13314;BME280;6725;48.112;11.604;2023-07-02T11:54:39;94996.38;;;27.55;100.00
13314;BME280;6725;48.112;11.604;2023-07-02T11:57:05;94994.53;;;27.33;100.00
13314;BME280;6725;48.112;11.604;2023-07-02T11:59:31;94998.41;;;26.84;100.00
13314;BME280;6725;48.112;11.604;2023-07-02T12:01:56;94991.41;;;26.56;100.00
13314;BME280;6725;48.112;11.604;2023-07-02T12:04:21;95000.53;;;26.05;100.00
13314;BME280;6725;48.112;11.604;2023-07-02T12:06:47;94987.59;;;25.74;100.00
13314;BME280;6725;48.112;11.604;2023-07-02T12:09:12;94994.19;;;25.82;100.00
13314;BME280;6725;48.112;11.604;2023-07-02T12:11:38;94989.38;;;25.83;100.00
13314;BME280;6725;48.112;11.604;2023-07-02T12:14:04;94986.63;;;25.66;100.00
13314;BME280;6725;48.112;11.604;2023-07-02T12:16:29;94978.53;;;25.35;100.00
13314;BME280;6725;48.112;11.604;2023-07-02T12:18:54;94979.00;;;25.17;100.00
13314;BME280;6725;48.112;11.604;2023-07-02T12:21:19;94973.66;;;24.97;100.00
13314;BME280;6725;48.112;11.604;2023-07-02T12:23:45;94973.16;;;25.09;100.00
13314;BME280;6725;48.112;11.604;2023-07-02T12:26:11;94969.06;;;24.83;100.00
13314;BME280;6725;48.112;11.604;2023-07-02T12:28:36;94968.56;;;24.95;100.00
13314;BME280;6725;48.112;11.604;2023-07-02T12:31:01;94973.91;;;25.04;100.00
13314;BME280;6725;48.112;11.604;2023-07-02T12:33:27;94975.47;;;25.38;100.00
13314;BME280;6725;48.112;11.604;2023-07-02T12:35:53;94976.97;;;25.45;100.00
13314;BME280;6725;48.112;11.604;2023-07-02T12:38:18;94972.13;;;25.12;100.00
13314;BME280;6725;48.112;11.604;2023-07-02T12:40:43;94981.03;;;25.44;100.00
13314;BME280;6725;48.112;11.604;2023-07-02T12:43:09;94963.50;;;25.32;100.00
13314;BME280;6725;48.112;11.604;2023-07-02T12:45:34;94970.84;;;25.52;100.00
13314;BME280;6725;48.112;11.604;2023-07-02T12:48:00;94965.75;;;25.56;100.00
13314;BME280;6725;48.112;11.604;2023-07-02T12:50:25;94974.69;;;25.43;100.00